createdAt,value
2018-08-18T00:01:57.708Z,3.63
2018-08-18T00:04:55.587Z,3.90
2018-08-18T00:07:53.868Z,3.77
2018-08-18T00:10:51.802Z,3.77
2018-08-18T00:13:59.948Z,3.60
2018-08-18T00:16:57.995Z,3.80
2018-08-18T00:20:03.076Z,4.00
2018-08-18T00:23:01.038Z,4.20
2018-08-18T00:25:59.108Z,4.00
2018-08-18T00:28:57.048Z,3.70
2018-08-18T00:31:55.833Z,3.93
2018-08-18T00:34:58.983Z,4.13
2018-08-18T00:37:56.508Z,3.30
2018-08-18T00:40:54.344Z,4.63
2018-08-18T00:43:52.361Z,3.80
2018-08-18T00:46:51.457Z,3.70
2018-08-18T00:49:49.535Z,4.17
2018-08-18T00:52:47.500Z,4.30
2018-08-18T00:55:45.638Z,3.73
2018-08-18T00:58:42.691Z,3.60
2018-08-18T01:01:39.810Z,4.60
2018-08-18T01:04:37.772Z,4.10
2018-08-18T01:07:34.865Z,3.70
2018-08-18T01:10:32.608Z,4.27
2018-08-18T01:13:30.668Z,4.03
2018-08-18T01:16:27.712Z,4.13
2018-08-18T01:19:27.551Z,4.07
2018-08-18T01:22:25.621Z,4.20
2018-08-18T01:25:23.584Z,3.70
2018-08-18T01:28:21.683Z,3.83
2018-08-18T01:31:32.047Z,4.20
2018-08-18T01:34:29.893Z,3.60
2018-08-18T01:37:28.564Z,3.57
2018-08-18T01:40:26.521Z,3.93
2018-08-18T01:43:23.712Z,4.83
2018-08-18T01:46:23.752Z,3.47
2018-08-18T01:49:57.167Z,3.60
2018-08-18T01:52:54.103Z,4.10
2018-08-18T01:55:52.255Z,4.87
2018-08-18T01:58:49.255Z,4.17
2018-08-18T02:01:47.424Z,4.20
2018-08-18T02:04:44.440Z,3.67
2018-08-18T02:07:42.385Z,3.83
2018-08-18T02:10:39.449Z,3.90
2018-08-18T02:13:36.598Z,3.87
2018-08-18T02:16:34.891Z,4.03
2018-08-18T02:19:32.246Z,4.53
2018-08-18T02:22:31.072Z,4.80
2018-08-18T02:25:28.977Z,4.63
2018-08-18T02:28:33.071Z,4.67
2018-08-18T02:31:29.911Z,4.47
2018-08-18T02:34:27.865Z,4.03
2018-08-18T02:37:25.716Z,3.77
2018-08-18T02:40:25.773Z,4.53
2018-08-18T02:43:28.915Z,4.07
2018-08-18T02:46:38.724Z,4.37
2018-08-18T02:49:40.892Z,4.23
2018-08-18T02:52:38.355Z,4.40
2018-08-18T02:55:35.819Z,4.80
2018-08-18T02:58:32.840Z,4.53
2018-08-18T03:01:34.857Z,4.43
2018-08-18T03:04:32.794Z,4.77
2018-08-18T03:07:30.168Z,4.70
2018-08-18T03:10:33.211Z,4.53
2018-08-18T03:13:33.406Z,4.83
2018-08-18T03:16:31.243Z,4.60
2018-08-18T03:19:28.432Z,4.63
2018-08-18T03:22:25.548Z,5.40
2018-08-18T03:25:22.595Z,4.23
2018-08-18T03:28:20.587Z,4.80
2018-08-18T03:31:17.955Z,4.90
2018-08-18T03:34:15.614Z,5.53
2018-08-18T03:37:12.890Z,4.83
2018-08-18T03:40:09.959Z,4.83
2018-08-18T03:43:06.983Z,3.63
2018-08-18T03:46:04.903Z,4.30
2018-08-18T03:49:02.630Z,4.90
2018-08-18T03:52:00.771Z,5.00
2018-08-18T03:54:58.804Z,4.13
2018-08-18T03:58:01.244Z,4.20
2018-08-18T04:00:58.737Z,5.30
2018-08-18T04:03:56.503Z,4.50
2018-08-18T04:06:54.766Z,4.70
2018-08-18T04:09:51.983Z,6.30
2018-08-18T04:12:49.606Z,4.70
2018-08-18T04:15:46.961Z,4.93
2018-08-18T04:18:43.815Z,4.70
2018-08-18T04:21:41.645Z,5.07
2018-08-18T04:24:47.416Z,5.37
2018-08-18T04:28:03.346Z,5.30
2018-08-18T04:31:00.845Z,5.13
2018-08-18T04:33:57.887Z,5.30
2018-08-18T04:36:55.115Z,5.00
2018-08-18T04:39:52.155Z,5.90
2018-08-18T04:42:49.863Z,5.80
2018-08-18T04:45:47.393Z,5.23
2018-08-18T04:48:50.989Z,4.93
2018-08-18T04:51:48.129Z,6.20
2018-08-18T04:54:46.067Z,7.20
2018-08-18T04:57:43.855Z,7.43
2018-08-18T05:00:41.659Z,6.30
2018-08-18T05:03:38.961Z,7.37
2018-08-18T05:06:37.807Z,5.90
2018-08-18T05:09:34.771Z,7.47
2018-08-18T05:12:32.637Z,8.03
2018-08-18T05:15:30.474Z,4.53
2018-08-18T05:18:28.463Z,6.17
2018-08-18T05:21:27.359Z,6.70
2018-08-18T05:24:36.547Z,6.87
2018-08-18T05:27:33.543Z,6.77
2018-08-18T05:30:30.622Z,6.43
2018-08-18T05:33:27.661Z,6.07
2018-08-18T05:36:25.734Z,6.00
2018-08-18T05:39:23.667Z,5.93
2018-08-18T05:42:20.803Z,6.37
2018-08-18T05:45:28.280Z,5.97
2018-08-18T05:48:26.436Z,6.30
2018-08-18T05:51:23.903Z,8.30
2018-08-18T05:54:27.704Z,8.63
2018-08-18T05:57:25.989Z,8.20
2018-08-18T06:00:25.123Z,8.30
2018-08-18T06:03:22.435Z,8.27
2018-08-18T06:06:21.368Z,8.30
2018-08-18T06:09:21.362Z,8.00
2018-08-18T06:12:25.320Z,7.80
2018-08-18T06:15:24.200Z,7.50
2018-08-18T06:18:22.386Z,8.00
2018-08-18T06:21:19.512Z,8.20
2018-08-18T06:24:16.775Z,8.80
2018-08-18T06:27:14.256Z,8.67
2018-08-18T06:30:12.561Z,8.30
2018-08-18T06:33:09.411Z,7.87
2018-08-18T06:36:06.637Z,9.60
2018-08-18T06:39:04.183Z,7.90
2018-08-18T06:42:02.008Z,7.43
2018-08-18T06:44:59.943Z,7.40
2018-08-18T06:47:57.815Z,7.50
2018-08-18T06:50:55.576Z,7.90
2018-08-18T06:53:55.696Z,7.97
2018-08-18T06:56:53.787Z,8.90
2018-08-18T06:59:51.855Z,9.10
2018-08-18T07:02:49.003Z,7.57
2018-08-18T07:05:46.715Z,8.47
2018-08-18T07:08:50.493Z,8.17
2018-08-18T07:11:48.265Z,7.20
2018-08-18T07:14:46.559Z,7.60
2018-08-18T07:17:44.516Z,8.17
2018-08-18T07:20:42.213Z,7.67
2018-08-18T07:23:40.183Z,7.53
2018-08-18T07:26:37.515Z,7.77
2018-08-18T07:29:35.336Z,8.07
2018-08-18T07:32:32.950Z,7.13
2018-08-18T07:35:31.014Z,7.27
2018-08-18T07:38:28.904Z,7.27
2018-08-18T07:41:26.875Z,6.15
2018-08-18T07:44:25.016Z,6.17
2018-08-18T07:47:24.855Z,6.67
2018-08-18T07:50:22.517Z,5.37
2018-08-18T07:53:21.573Z,5.47
2018-08-18T07:56:19.324Z,5.80
2018-08-18T07:59:17.251Z,4.87
2018-08-18T08:02:15.074Z,5.60
2018-08-18T08:05:12.422Z,5.17
2018-08-18T08:08:09.944Z,5.80
2018-08-18T08:11:14.292Z,5.72
2018-08-18T08:14:11.418Z,5.80
2018-08-18T08:17:08.714Z,5.03
2018-08-18T08:20:06.037Z,5.20
2018-08-18T08:23:04.680Z,5.72
2018-08-18T08:26:02.013Z,5.72
2018-08-18T08:28:59.890Z,5.78
2018-08-18T08:31:58.081Z,3.92
2018-08-18T08:34:56.137Z,4.75
2018-08-18T08:37:55.137Z,4.55
2018-08-18T08:40:53.213Z,4.70
2018-08-18T08:43:57.315Z,3.67
2018-08-18T08:46:59.194Z,4.20
2018-08-18T08:49:56.260Z,4.10
2018-08-18T08:52:57.499Z,3.90
2018-08-18T08:55:55.534Z,3.72
2018-08-18T08:58:57.842Z,3.33
2018-08-18T09:01:55.942Z,3.30
2018-08-18T09:04:54.025Z,3.62
2018-08-18T09:07:51.880Z,3.40
2018-08-18T09:10:49.951Z,3.90
2018-08-18T09:13:48.043Z,3.58
2018-08-18T09:16:45.604Z,3.67
2018-08-18T09:19:42.756Z,3.60
2018-08-18T09:22:39.923Z,4.12
2018-08-18T09:25:38.284Z,3.00
2018-08-18T09:28:36.167Z,3.45
2018-08-18T09:31:34.829Z,3.53
2018-08-18T09:34:32.505Z,4.00
2018-08-18T09:37:29.544Z,3.73
2018-08-18T09:40:27.656Z,4.17
2018-08-18T09:43:31.675Z,4.30
2018-08-18T09:46:28.726Z,4.77
2018-08-18T09:49:26.524Z,4.47
2018-08-18T09:52:25.595Z,5.20
2018-08-18T09:55:23.489Z,5.77
2018-08-18T09:58:21.536Z,5.77
2018-08-18T10:01:19.438Z,5.67
2018-08-18T10:04:17.436Z,7.13
2018-08-18T10:07:15.422Z,6.50
2018-08-18T10:10:13.429Z,4.80
2018-08-18T10:13:11.387Z,6.40
2018-08-18T10:16:09.469Z,5.70
2018-08-18T10:19:07.468Z,4.87
2018-08-18T10:22:05.180Z,5.60
2018-08-18T10:25:03.072Z,4.43
2018-08-18T10:28:02.126Z,6.03
2018-08-18T10:31:00.060Z,5.97
2018-08-18T10:33:58.076Z,5.07
2018-08-18T10:37:13.242Z,5.60
2018-08-18T10:40:17.188Z,5.70
2018-08-18T10:43:14.977Z,4.87
2018-08-18T10:46:12.583Z,4.70
2018-08-18T10:49:10.417Z,4.80
2018-08-18T10:52:20.479Z,5.83
2018-08-18T10:55:18.484Z,4.33
2018-08-18T10:58:21.417Z,5.67
2018-08-18T11:01:19.234Z,5.53
2018-08-18T11:04:16.359Z,6.03
2018-08-18T11:07:13.334Z,6.07
2018-08-18T11:10:11.181Z,4.83
2018-08-18T11:13:08.442Z,4.77
2018-08-18T11:16:06.335Z,4.27
2018-08-18T11:19:04.260Z,4.33
2018-08-18T11:22:04.303Z,3.97
2018-08-18T11:25:02.128Z,4.20
2018-08-18T11:28:01.296Z,3.50
2018-08-18T11:30:58.295Z,4.13
2018-08-18T11:34:00.230Z,3.60
2018-08-18T11:37:06.567Z,3.10
2018-08-18T11:40:08.665Z,4.50
2018-08-18T11:43:05.712Z,4.67
2018-08-18T11:46:03.050Z,3.90
2018-08-18T11:49:00.428Z,4.53
2018-08-18T11:51:58.351Z,4.60
2018-08-18T11:54:56.251Z,4.40
2018-08-18T11:57:53.339Z,4.90
2018-08-18T12:00:57.893Z,4.17
2018-08-18T12:03:56.017Z,3.70
2018-08-18T12:06:59.971Z,4.23
2018-08-18T12:10:00.103Z,4.47
2018-08-18T12:12:57.986Z,4.33
2018-08-18T12:16:06.295Z,3.33
2018-08-18T12:19:03.998Z,3.50
2018-08-18T12:22:01.916Z,4.70
2018-08-18T12:25:05.237Z,4.60
2018-08-18T12:28:03.150Z,5.07
2018-08-18T12:31:01.277Z,3.93
2018-08-18T12:33:59.060Z,4.17
2018-08-18T12:36:57.243Z,5.63
2018-08-18T12:39:54.970Z,4.23
2018-08-18T12:42:52.768Z,4.33
2018-08-18T12:45:54.939Z,4.97
2018-08-18T12:48:53.003Z,3.80
2018-08-18T12:51:51.245Z,5.20
2018-08-18T12:54:49.139Z,4.20
2018-08-18T12:57:53.369Z,4.40
2018-08-18T13:00:50.728Z,3.30
2018-08-18T13:03:48.516Z,3.83
2018-08-18T13:06:50.090Z,5.73
2018-08-18T13:09:47.732Z,4.83
2018-08-18T13:12:45.598Z,4.20
2018-08-18T13:15:43.376Z,4.13
2018-08-18T13:18:40.502Z,3.93
2018-08-18T13:21:38.368Z,4.27
2018-08-18T13:24:36.258Z,3.27
2018-08-18T13:27:34.328Z,3.60
2018-08-18T13:30:33.311Z,3.90
2018-08-18T13:33:31.442Z,3.97
2018-08-18T13:36:28.568Z,4.10
2018-08-18T13:39:27.775Z,3.77
2018-08-18T13:42:37.492Z,4.70
2018-08-18T13:45:41.836Z,3.20
2018-08-18T13:48:39.514Z,3.07
2018-08-18T13:51:37.502Z,4.07
2018-08-18T13:54:34.840Z,2.83
2018-08-18T13:57:43.093Z,3.13
2018-08-18T14:00:40.938Z,3.00
2018-08-18T14:03:54.373Z,2.40
2018-08-18T14:06:57.719Z,2.87
2018-08-18T14:10:02.136Z,2.30
2018-08-18T14:13:00.485Z,1.87
2018-08-18T14:16:04.206Z,2.17
2018-08-18T14:19:02.248Z,2.97
2018-08-18T14:22:15.077Z,2.47
2018-08-18T14:25:12.431Z,2.40
2018-08-18T14:28:11.623Z,2.27
2018-08-18T14:31:09.512Z,3.03
2018-08-18T14:34:07.615Z,2.43
2018-08-18T14:37:10.704Z,2.83
2018-08-18T14:40:08.036Z,2.80
2018-08-18T14:43:05.188Z,2.50
2018-08-18T14:46:03.144Z,2.50
2018-08-18T14:49:01.021Z,2.27
2018-08-18T14:51:59.085Z,2.63
2018-08-18T14:54:56.371Z,2.27
2018-08-18T14:58:01.516Z,2.67
2018-08-18T15:01:03.359Z,2.00
2018-08-18T15:04:01.170Z,2.47
2018-08-18T15:06:59.219Z,2.10
2018-08-18T15:10:00.422Z,2.53
2018-08-18T15:12:58.470Z,2.23
2018-08-18T15:15:56.508Z,2.60
2018-08-18T15:18:54.182Z,2.30
2018-08-18T15:21:52.191Z,2.67
2018-08-18T15:24:49.191Z,3.33
2018-08-18T15:27:47.346Z,2.73
2018-08-18T15:30:45.787Z,2.03
2018-08-18T15:33:43.128Z,3.17
2018-08-18T15:36:47.141Z,2.23
2018-08-18T15:39:47.107Z,3.27
2018-08-18T15:42:44.421Z,3.40
2018-08-18T15:45:42.529Z,3.13
2018-08-18T15:48:40.708Z,2.80
2018-08-18T15:51:37.691Z,3.00
2018-08-18T15:54:37.881Z,2.87
2018-08-18T15:57:36.047Z,4.37
2018-08-18T16:06:04.446Z,2.60
2018-08-18T16:09:02.501Z,3.10
2018-08-18T16:12:00.321Z,3.20
2018-08-18T16:14:58.076Z,2.73
2018-08-18T16:17:56.020Z,2.83
2018-08-18T16:20:55.764Z,2.53
2018-08-18T16:23:53.646Z,2.73
2018-08-18T16:26:50.600Z,2.67
2018-08-18T16:29:48.564Z,2.27
2018-08-18T16:32:46.745Z,3.13
2018-08-18T16:35:44.708Z,2.70
2018-08-18T16:38:42.835Z,3.63
2018-08-18T16:41:40.552Z,3.20
2018-08-18T16:44:38.551Z,3.87
2018-08-18T16:47:36.648Z,4.10
2018-08-18T16:50:34.528Z,3.13
2018-08-18T16:53:32.381Z,2.90
2018-08-18T16:56:36.691Z,2.80
2018-08-18T16:59:34.868Z,3.00
2018-08-18T17:02:43.806Z,3.47
2018-08-18T17:05:41.788Z,2.47
2018-08-18T17:08:39.583Z,2.33
2018-08-18T17:11:37.460Z,2.43
2018-08-18T17:14:35.501Z,3.00
2018-08-18T17:17:33.357Z,2.83
2018-08-18T17:20:32.176Z,2.80
2018-08-18T17:23:29.963Z,3.60
2018-08-18T17:26:27.892Z,3.57
2018-08-18T17:29:25.762Z,7.00
2018-08-18T17:32:23.518Z,3.27
2018-08-18T17:35:21.517Z,4.43
2018-08-18T17:38:19.182Z,2.80
2018-08-18T17:41:17.042Z,3.10
2018-08-18T17:44:14.927Z,2.70
2018-08-18T17:47:12.825Z,2.57
2018-08-18T17:50:10.538Z,3.33
2018-08-18T17:53:08.436Z,2.70
2018-08-18T17:56:12.359Z,3.30
2018-08-18T17:59:10.230Z,2.70
2018-08-18T18:02:16.212Z,4.23
2018-08-18T18:05:15.075Z,3.10
2018-08-18T18:08:15.082Z,5.37
2018-08-18T18:11:12.743Z,3.43
2018-08-18T18:14:10.741Z,3.10
2018-08-18T18:17:08.591Z,2.37
2018-08-18T18:20:06.474Z,2.37
2018-08-18T18:23:04.289Z,3.10
2018-08-18T18:26:02.334Z,4.73
2018-08-18T18:29:00.391Z,2.57
2018-08-18T18:31:58.432Z,2.40
2018-08-18T18:34:56.267Z,2.57
2018-08-18T18:37:54.149Z,12.97
2018-08-18T18:40:56.176Z,3.47
2018-08-18T18:43:57.568Z,5.50
2018-08-18T18:46:55.096Z,4.80
2018-08-18T18:49:53.194Z,4.27
2018-08-18T18:52:50.538Z,3.77
2018-08-18T18:55:53.421Z,4.30
2018-08-18T18:58:51.454Z,4.47
2018-08-18T19:01:48.695Z,3.43
2018-08-18T19:04:47.374Z,3.23
2018-08-18T19:07:45.343Z,3.73
2018-08-18T19:10:44.216Z,3.47
2018-08-18T19:13:41.824Z,3.93
2018-08-18T19:16:39.747Z,3.80
2018-08-18T19:19:37.916Z,5.37
2018-08-18T19:22:35.908Z,3.83
2018-08-18T19:25:33.980Z,4.40
2018-08-18T19:28:35.368Z,3.30
2018-08-18T19:31:41.665Z,2.60
2018-08-18T19:34:39.594Z,3.07
2018-08-18T19:37:37.657Z,2.67
2018-08-18T19:40:35.977Z,2.60
2018-08-18T19:43:35.076Z,2.43
2018-08-18T19:46:33.221Z,2.67
2018-08-18T19:49:37.363Z,3.10
2018-08-18T19:52:36.275Z,3.10
2018-08-18T19:55:34.301Z,3.23
2018-08-18T19:58:33.142Z,2.83
2018-08-18T20:01:31.186Z,3.23
2018-08-18T20:04:34.157Z,3.50
2018-08-18T20:07:32.104Z,3.03
2018-08-18T20:10:29.977Z,3.63
2018-08-18T20:13:28.898Z,3.63
2018-08-18T20:16:27.127Z,3.93
2018-08-18T20:19:25.887Z,4.07
2018-08-18T20:22:28.108Z,4.07
2018-08-18T20:25:25.739Z,4.33
2018-08-18T20:28:23.480Z,4.50
2018-08-18T20:31:21.467Z,5.47
2018-08-18T20:34:19.176Z,6.00
2018-08-18T20:37:17.007Z,5.27
2018-08-18T20:40:15.936Z,7.23
2018-08-18T20:43:15.856Z,11.17
2018-08-18T20:46:13.876Z,8.63
2018-08-18T20:49:11.757Z,6.97
2018-08-18T20:52:09.539Z,5.30
2018-08-18T20:55:07.428Z,4.90
2018-08-18T20:58:05.488Z,12.93
2018-08-18T21:01:03.380Z,14.17
2018-08-18T21:04:07.296Z,6.30
2018-08-18T21:07:05.262Z,5.50
2018-08-18T21:10:03.249Z,4.83
2018-08-18T21:13:01.302Z,5.27
2018-08-18T21:15:59.204Z,5.00
2018-08-18T21:18:57.116Z,5.67
2018-08-18T21:21:54.999Z,5.87
2018-08-18T21:24:52.916Z,5.87
2018-08-18T21:27:50.755Z,5.20
2018-08-18T21:30:48.776Z,5.10
2018-08-18T21:33:48.678Z,5.00
2018-08-18T21:36:46.728Z,4.97
2018-08-18T21:39:44.658Z,4.93
2018-08-18T21:42:42.627Z,4.90
2018-08-18T21:45:46.654Z,6.47
2018-08-18T21:48:55.051Z,5.43
2018-08-18T21:51:52.905Z,4.90
2018-08-18T21:54:50.874Z,5.40
2018-08-18T21:57:59.431Z,5.00
2018-08-18T22:00:56.420Z,5.10
2018-08-18T22:03:55.492Z,5.30
2018-08-18T22:06:53.631Z,5.20
2018-08-18T22:09:51.547Z,5.57
2018-08-18T22:12:49.356Z,6.13
2018-08-18T22:15:47.205Z,5.40
2018-08-18T22:18:45.018Z,5.73
2018-08-18T22:21:43.127Z,5.70
2018-08-18T22:24:41.165Z,5.50
2018-08-18T22:27:42.001Z,6.23
2018-08-18T22:30:39.671Z,6.47
2018-08-18T22:33:41.743Z,6.10
2018-08-18T22:36:40.801Z,6.13
2018-08-18T22:39:40.984Z,5.80
2018-08-18T22:42:38.633Z,6.10
2018-08-18T22:45:42.690Z,6.03
2018-08-18T22:48:40.673Z,6.23
2018-08-18T22:51:38.404Z,6.77
2018-08-18T22:54:35.608Z,6.10
2018-08-18T22:57:34.758Z,6.30
2018-08-18T23:00:32.112Z,6.17
2018-08-18T23:03:29.458Z,6.03
2018-08-18T23:06:27.344Z,6.50
2018-08-18T23:09:25.527Z,6.63
2018-08-18T23:12:24.620Z,6.80
2018-08-18T23:15:22.464Z,7.07
2018-08-18T23:18:20.083Z,6.63
2018-08-18T23:21:22.057Z,7.23
2018-08-18T23:24:30.271Z,7.90
2018-08-18T23:27:27.782Z,7.60
2018-08-18T23:30:34.521Z,7.90
2018-08-18T23:33:32.549Z,7.53
2018-08-18T23:36:30.513Z,8.73
2018-08-18T23:39:29.244Z,7.70
2018-08-18T23:42:34.394Z,8.37
2018-08-18T23:45:36.537Z,8.20
2018-08-18T23:48:33.879Z,7.47
2018-08-18T23:51:35.883Z,8.27
2018-08-18T23:54:33.711Z,8.17
2018-08-18T23:57:31.704Z,10.40
